createdAt,value
2023-04-27T00:01:23.835Z,3.85
2023-04-27T00:03:51.944Z,3.58
2023-04-27T00:06:30.351Z,3.40
2023-04-27T00:08:57.611Z,3.30
2023-04-27T00:11:25.120Z,3.67
2023-04-27T00:13:52.606Z,3.30
2023-04-27T00:16:21.817Z,3.00
2023-04-27T00:18:49.133Z,3.72
2023-04-27T00:21:16.744Z,3.20
2023-04-27T00:23:44.401Z,3.97
2023-04-27T00:26:12.019Z,3.83
2023-04-27T00:28:39.252Z,4.13
2023-04-27T00:31:06.528Z,4.35
2023-04-27T00:33:36.321Z,4.30
2023-04-27T00:36:03.681Z,4.00
2023-04-27T00:38:31.714Z,3.80
2023-04-27T00:41:02.622Z,3.97
2023-04-27T00:43:30.323Z,4.13
2023-04-27T00:45:57.866Z,3.63
2023-04-27T00:48:25.707Z,3.60
2023-04-27T00:50:54.838Z,3.55
2023-04-27T00:53:22.573Z,2.92
2023-04-27T00:55:49.798Z,3.38
2023-04-27T00:58:17.122Z,3.50
2023-04-27T01:00:44.432Z,3.47
2023-04-27T01:03:12.199Z,3.70
2023-04-27T01:05:39.661Z,3.58
2023-04-27T01:08:08.450Z,3.65
2023-04-27T01:10:36.080Z,4.43
2023-04-27T01:13:03.993Z,3.58
2023-04-27T01:15:31.602Z,3.30
2023-04-27T01:17:59.405Z,3.22
2023-04-27T01:20:30.663Z,3.22
2023-04-27T01:22:58.629Z,3.35
2023-04-27T01:25:27.361Z,3.58
2023-04-27T01:27:54.977Z,3.65
2023-04-27T01:30:25.530Z,4.00
2023-04-27T01:32:53.608Z,3.38
2023-04-27T01:35:21.008Z,3.67
2023-04-27T01:37:48.299Z,3.60
2023-04-27T01:40:16.024Z,3.60
2023-04-27T01:42:44.935Z,3.40
2023-04-27T01:45:12.229Z,2.92
2023-04-27T01:47:39.757Z,3.60
2023-04-27T01:50:07.764Z,2.88
2023-04-27T01:52:35.333Z,3.13
2023-04-27T01:55:02.749Z,3.10
2023-04-27T01:57:30.201Z,3.85
2023-04-27T01:59:59.072Z,2.85
2023-04-27T02:02:26.765Z,3.60
2023-04-27T02:04:54.412Z,4.22
2023-04-27T02:07:22.063Z,5.53
2023-04-27T02:09:49.304Z,4.68
2023-04-27T02:12:16.526Z,3.40
2023-04-27T02:14:43.726Z,3.22
2023-04-27T02:17:12.440Z,3.47
2023-04-27T02:19:39.634Z,3.60
2023-04-27T02:22:07.150Z,2.83
2023-04-27T02:24:36.738Z,3.20
2023-04-27T02:27:05.122Z,3.53
2023-04-27T02:29:32.938Z,3.58
2023-04-27T02:32:01.050Z,3.63
2023-04-27T02:34:29.869Z,4.00
2023-04-27T02:36:57.191Z,3.38
2023-04-27T02:39:24.534Z,3.50
2023-04-27T02:41:52.353Z,3.78
2023-04-27T02:44:19.969Z,3.40
2023-04-27T02:46:47.279Z,3.00
2023-04-27T02:49:16.046Z,3.40
2023-04-27T02:51:45.148Z,3.40
2023-04-27T02:54:12.432Z,3.13
2023-04-27T02:56:39.729Z,3.40
2023-04-27T02:59:07.225Z,3.33
2023-04-27T03:01:34.775Z,3.70
2023-04-27T03:04:02.742Z,2.97
2023-04-27T03:06:30.187Z,3.50
2023-04-27T03:08:59.040Z,3.20
2023-04-27T03:11:26.476Z,3.30
2023-04-27T03:13:53.731Z,3.55
2023-04-27T03:16:21.176Z,3.70
2023-04-27T03:18:48.621Z,5.40
2023-04-27T03:21:17.110Z,4.97
2023-04-27T03:23:44.376Z,5.38
2023-04-27T03:26:14.445Z,7.30
2023-04-27T03:28:42.352Z,9.98
2023-04-27T03:31:10.830Z,7.90
2023-04-27T03:33:38.809Z,7.83
2023-04-27T03:36:06.948Z,8.27
2023-04-27T03:38:35.705Z,7.80
2023-04-27T03:41:03.451Z,7.93
2023-04-27T03:43:32.096Z,6.70
2023-04-27T03:45:59.449Z,6.53
2023-04-27T03:48:27.056Z,5.90
2023-04-27T03:50:54.350Z,6.60
2023-04-27T03:53:21.582Z,8.27
2023-04-27T03:55:49.081Z,7.47
2023-04-27T03:58:17.588Z,7.90
2023-04-27T04:00:46.570Z,7.40
2023-04-27T04:03:14.466Z,6.80
2023-04-27T04:05:42.056Z,7.00
2023-04-27T04:08:09.272Z,6.30
2023-04-27T04:10:36.610Z,6.43
2023-04-27T04:13:04.035Z,7.18
2023-04-27T04:15:31.484Z,7.22
2023-04-27T04:18:00.302Z,6.43
2023-04-27T04:20:27.732Z,5.18
2023-04-27T04:22:55.441Z,5.63
2023-04-27T04:25:22.698Z,5.20
2023-04-27T04:27:50.360Z,5.35
2023-04-27T04:30:17.952Z,4.72
2023-04-27T04:32:45.435Z,5.00
2023-04-27T04:35:14.420Z,4.87
2023-04-27T04:37:41.788Z,5.63
2023-04-27T04:40:10.699Z,7.40
2023-04-27T04:42:38.195Z,7.72
2023-04-27T04:45:07.400Z,7.05
2023-04-27T04:47:35.581Z,7.47
2023-04-27T04:50:03.042Z,5.88
2023-04-27T04:52:31.733Z,6.03
2023-04-27T04:54:58.977Z,5.70
2023-04-27T04:57:26.290Z,5.95
2023-04-27T04:59:53.865Z,5.67
2023-04-27T05:02:21.470Z,7.57
2023-04-27T05:04:48.846Z,11.15
2023-04-27T05:07:20.908Z,9.43
2023-04-27T05:09:52.838Z,7.47
2023-04-27T05:12:20.406Z,5.20
2023-04-27T05:14:48.492Z,4.40
2023-04-27T05:17:16.055Z,4.28
2023-04-27T05:19:43.520Z,3.97
2023-04-27T05:22:11.184Z,3.95
2023-04-27T05:24:48.324Z,3.80
2023-04-27T05:27:17.188Z,4.75
2023-04-27T05:29:44.498Z,4.05
2023-04-27T05:32:12.098Z,4.82
2023-04-27T05:34:39.325Z,4.72
2023-04-27T05:37:06.791Z,6.10
2023-04-27T05:39:34.435Z,5.28
2023-04-27T05:42:03.132Z,4.78
2023-04-27T05:44:32.017Z,5.90
2023-04-27T05:46:59.626Z,6.18
2023-04-27T05:49:29.438Z,5.37
2023-04-27T05:52:05.298Z,5.07
2023-04-27T05:54:32.525Z,4.80
2023-04-27T05:57:20.796Z,4.78
2023-04-27T05:59:50.402Z,4.65
2023-04-27T06:02:18.062Z,4.50
2023-04-27T06:04:45.931Z,5.30
2023-04-27T06:07:16.164Z,4.22
2023-04-27T06:09:43.854Z,4.53
2023-04-27T06:12:11.421Z,4.45
2023-04-27T06:14:38.867Z,4.27
2023-04-27T06:17:07.662Z,3.40
2023-04-27T06:19:35.163Z,3.60
2023-04-27T06:22:03.928Z,3.70
2023-04-27T06:24:31.260Z,3.33
2023-04-27T06:26:58.722Z,3.10
2023-04-27T06:29:25.936Z,3.60
2023-04-27T06:31:53.457Z,3.28
2023-04-27T06:34:22.084Z,3.40
2023-04-27T06:36:49.427Z,2.65
2023-04-27T06:39:16.910Z,3.10
2023-04-27T06:41:44.405Z,2.80
2023-04-27T06:44:12.005Z,2.10
2023-04-27T06:46:39.704Z,2.60
2023-04-27T06:49:09.210Z,5.57
2023-04-27T06:51:37.926Z,2.50
2023-04-27T06:54:06.116Z,1.98
2023-04-27T06:56:34.180Z,2.28
2023-04-27T06:59:02.371Z,2.30
2023-04-27T07:01:30.409Z,2.50
2023-04-27T07:04:00.962Z,2.20
2023-04-27T07:06:28.860Z,2.50
2023-04-27T07:09:29.248Z,2.10
2023-04-27T07:12:03.335Z,1.90
2023-04-27T07:14:30.677Z,2.58
2023-04-27T07:16:58.007Z,1.80
2023-04-27T07:19:25.643Z,1.80
2023-04-27T07:21:52.988Z,1.83
2023-04-27T07:24:20.755Z,1.90
2023-04-27T07:26:50.006Z,1.98
2023-04-27T07:29:26.613Z,1.80
2023-04-27T07:31:55.917Z,1.85
2023-04-27T07:34:38.003Z,1.70
2023-04-27T07:37:14.009Z,1.98
2023-04-27T07:39:42.597Z,1.77
2023-04-27T07:42:13.938Z,1.87
2023-04-27T07:44:50.962Z,1.73
2023-04-27T07:47:20.893Z,1.50
2023-04-27T07:49:49.425Z,1.50
2023-04-27T07:52:23.023Z,1.73
2023-04-27T07:54:57.270Z,1.73
2023-04-27T07:57:32.993Z,1.45
2023-04-27T08:00:00.596Z,1.30
2023-04-27T08:02:39.444Z,1.20
2023-04-27T08:05:08.274Z,1.33
2023-04-27T08:07:50.399Z,1.50
2023-04-27T08:10:20.647Z,1.60
2023-04-27T08:13:06.798Z,1.27
2023-04-27T08:15:38.593Z,1.40
2023-04-27T08:18:10.417Z,1.73
2023-04-27T08:21:44.126Z,1.33
2023-04-27T08:24:02.809Z,0.90
2023-04-27T08:26:31.207Z,1.42
2023-04-27T08:29:15.322Z,1.05
2023-04-27T08:32:04.369Z,1.33
2023-04-27T08:34:39.429Z,1.70
2023-04-27T08:37:32.868Z,1.33
2023-04-27T08:40:03.496Z,1.50
2023-04-27T08:42:31.573Z,3.10
2023-04-27T08:45:00.497Z,2.03
2023-04-27T08:47:39.133Z,1.20
2023-04-27T08:50:10.729Z,1.65
2023-04-27T08:52:43.796Z,1.30
2023-04-27T08:55:11.179Z,1.48
2023-04-27T08:57:38.898Z,1.23
2023-04-27T09:00:13.454Z,1.37
2023-04-27T09:02:47.643Z,1.52
2023-04-27T09:05:18.573Z,1.23
2023-04-27T09:07:59.284Z,1.48
2023-04-27T09:10:29.554Z,1.60
2023-04-27T09:12:59.087Z,2.43
2023-04-27T09:15:31.804Z,1.50
2023-04-27T09:18:00.436Z,1.92
2023-04-27T09:20:31.474Z,1.75
2023-04-27T09:23:01.674Z,1.92
2023-04-27T09:25:35.843Z,1.90
2023-04-27T09:28:10.454Z,1.77
2023-04-27T09:30:39.131Z,1.92
2023-04-27T09:33:06.587Z,1.80
2023-04-27T09:35:34.091Z,1.80
2023-04-27T09:38:01.654Z,2.20
2023-04-27T09:40:31.255Z,1.80
2023-04-27T09:43:01.219Z,1.60
2023-04-27T09:45:28.687Z,1.70
2023-04-27T09:47:58.515Z,1.58
2023-04-27T09:50:26.407Z,1.60
2023-04-27T09:52:53.984Z,1.95
2023-04-27T09:55:26.151Z,1.60
2023-04-27T09:58:03.817Z,1.80
2023-04-27T10:00:42.936Z,1.33
2023-04-27T10:03:23.846Z,1.60
2023-04-27T10:06:40.875Z,1.50
2023-04-27T10:09:10.462Z,1.50
2023-04-27T10:11:44.133Z,2.00
2023-04-27T10:14:18.355Z,1.38
2023-04-27T10:16:47.335Z,1.50
2023-04-27T10:19:16.756Z,1.55
2023-04-27T10:22:00.459Z,1.50
2023-04-27T10:24:37.809Z,2.30
2023-04-27T10:27:12.461Z,1.70
2023-04-27T10:29:42.139Z,1.70
2023-04-27T10:32:11.618Z,1.60
2023-04-27T10:34:41.437Z,8.77
2023-04-27T10:37:10.382Z,2.10
2023-04-27T10:39:47.847Z,2.08
2023-04-27T10:42:29.118Z,3.33
2023-04-27T10:44:58.071Z,2.22
2023-04-27T10:47:36.140Z,1.42
2023-04-27T10:50:06.628Z,1.30
2023-04-27T10:52:34.501Z,1.55
2023-04-27T10:55:13.531Z,1.80
2023-04-27T10:57:47.267Z,1.58
2023-04-27T11:00:19.008Z,1.52
2023-04-27T11:02:59.058Z,1.50
2023-04-27T11:05:33.587Z,1.55
2023-04-27T11:08:08.466Z,1.80
2023-04-27T11:10:39.708Z,1.80
2023-04-27T11:13:12.540Z,1.67
2023-04-27T11:15:48.007Z,1.80
2023-04-27T11:18:17.358Z,1.90
2023-04-27T11:20:48.561Z,1.67
2023-04-27T11:23:24.323Z,1.70
2023-04-27T11:25:52.473Z,1.80
2023-04-27T11:28:22.534Z,2.03
2023-04-27T11:30:56.455Z,1.70
2023-04-27T11:33:24.060Z,2.27
2023-04-27T11:35:56.863Z,1.88
2023-04-27T11:38:24.540Z,2.08
2023-04-27T11:41:00.916Z,2.10
2023-04-27T11:43:28.846Z,2.10
2023-04-27T11:45:56.492Z,2.40
2023-04-27T11:48:24.427Z,1.88
2023-04-27T11:50:53.603Z,2.13
2023-04-27T11:53:31.132Z,2.00
2023-04-27T11:56:00.284Z,2.10
2023-04-27T11:58:28.220Z,2.00
2023-04-27T12:00:57.049Z,2.22
2023-04-27T12:03:26.240Z,1.75
2023-04-27T12:05:55.981Z,2.03
2023-04-27T12:08:24.418Z,2.10
2023-04-27T12:10:52.064Z,2.13
2023-04-27T12:13:27.902Z,1.73
2023-04-27T12:15:55.197Z,2.20
2023-04-27T12:18:22.592Z,2.38
2023-04-27T12:20:50.616Z,1.92
2023-04-27T12:23:19.448Z,2.30
2023-04-27T12:25:46.744Z,2.20
2023-04-27T12:28:19.133Z,1.92
2023-04-27T12:30:46.598Z,2.00
2023-04-27T12:33:14.079Z,1.70
2023-04-27T12:35:41.419Z,1.70
2023-04-27T12:38:09.759Z,1.50
2023-04-27T12:40:38.561Z,1.83
2023-04-27T12:43:07.673Z,1.75
2023-04-27T12:45:34.968Z,1.88
2023-04-27T12:48:04.287Z,2.10
2023-04-27T12:50:32.760Z,2.13
2023-04-27T12:53:00.506Z,2.05
2023-04-27T12:57:59.442Z,1.85
2023-04-27T13:00:26.946Z,1.70
2023-04-27T13:02:54.520Z,1.90
2023-04-27T13:05:22.468Z,1.70
2023-04-27T13:07:53.847Z,1.70
2023-04-27T13:10:22.240Z,1.75
2023-04-27T13:12:49.831Z,1.90
2023-04-27T13:15:18.848Z,2.20
2023-04-27T13:17:46.380Z,1.73
2023-04-27T13:20:13.832Z,1.70
2023-04-27T13:22:42.565Z,2.30
2023-04-27T13:25:10.843Z,2.00
2023-04-27T13:27:38.153Z,2.25
2023-04-27T13:30:10.226Z,1.65
2023-04-27T13:32:39.444Z,1.80
2023-04-27T13:35:08.802Z,1.73
2023-04-27T13:37:38.015Z,1.80
2023-04-27T13:40:06.761Z,1.83
2023-04-27T13:42:35.170Z,1.50
2023-04-27T13:45:04.404Z,1.95
2023-04-27T13:47:37.319Z,1.70
2023-04-27T13:50:09.146Z,1.63
2023-04-27T13:52:38.329Z,1.85
2023-04-27T13:55:07.125Z,2.65
2023-04-27T13:57:34.772Z,24.40
2023-04-27T14:00:02.753Z,2.00
2023-04-27T14:02:31.197Z,2.90
2023-04-27T14:04:58.733Z,4.22
2023-04-27T14:07:27.988Z,2.33
2023-04-27T14:09:55.198Z,1.90
2023-04-27T14:12:22.627Z,1.95
2023-04-27T14:14:49.895Z,2.50
2023-04-27T14:17:17.117Z,2.00
2023-04-27T14:19:44.429Z,2.05
2023-04-27T14:22:12.727Z,1.90
2023-04-27T14:24:41.534Z,2.38
2023-04-27T14:27:08.834Z,2.00
2023-04-27T14:29:36.138Z,1.73
2023-04-27T14:32:04.218Z,1.90
2023-04-27T14:34:31.447Z,2.03
2023-04-27T14:36:58.717Z,2.20
2023-04-27T14:39:28.161Z,2.50
2023-04-27T14:41:57.352Z,2.10
2023-04-27T14:44:24.913Z,1.70
2023-04-27T14:46:52.127Z,2.35
2023-04-27T14:49:19.871Z,1.90
2023-04-27T14:51:47.173Z,1.77
2023-04-27T14:54:14.783Z,2.15
2023-04-27T14:56:42.659Z,2.13
2023-04-27T14:59:11.451Z,2.00
2023-04-27T15:01:38.717Z,1.63
2023-04-27T15:04:06.423Z,1.80
2023-04-27T15:06:33.945Z,1.80
2023-04-27T15:09:01.218Z,1.85
2023-04-27T15:11:28.506Z,2.08
2023-04-27T15:13:56.205Z,2.40
2023-04-27T15:16:25.050Z,1.60
2023-04-27T15:18:52.263Z,2.25
2023-04-27T15:21:19.526Z,1.50
2023-04-27T15:23:46.727Z,2.05
2023-04-27T15:26:14.317Z,1.70
2023-04-27T15:28:41.792Z,2.30
2023-04-27T15:31:09.363Z,1.92
2023-04-27T15:33:38.069Z,2.47
2023-04-27T15:36:05.956Z,1.80
2023-04-27T15:38:33.986Z,2.38
2023-04-27T15:41:01.664Z,4.33
2023-04-27T15:43:29.052Z,3.33
2023-04-27T15:45:56.446Z,3.05
2023-04-27T15:48:23.617Z,1.90
2023-04-27T15:50:52.427Z,2.75
2023-04-27T15:53:19.779Z,2.97
2023-04-27T15:55:47.035Z,1.60
2023-04-27T15:58:15.232Z,1.58
2023-04-27T16:00:42.534Z,3.20
2023-04-27T16:03:11.392Z,4.55
2023-04-27T16:05:39.003Z,26.20
2023-04-27T16:08:07.656Z,39.38
2023-04-27T16:10:35.067Z,42.78
2023-04-27T16:13:02.374Z,20.13
2023-04-27T16:15:29.772Z,4.10
2023-04-27T16:17:57.144Z,2.20
2023-04-27T16:20:25.587Z,2.35
2023-04-27T16:22:53.230Z,2.10
2023-04-27T16:25:22.244Z,2.20
2023-04-27T16:27:49.471Z,2.17
2023-04-27T16:30:16.746Z,2.27
2023-04-27T16:32:43.998Z,2.10
2023-04-27T16:35:11.341Z,2.22
2023-04-27T16:37:38.762Z,2.88
2023-04-27T16:40:08.475Z,1.88
2023-04-27T16:42:37.529Z,2.13
2023-04-27T16:45:08.389Z,2.08
2023-04-27T16:47:37.668Z,3.65
2023-04-27T16:50:05.543Z,3.25
2023-04-27T16:52:32.824Z,2.50
2023-04-27T16:55:00.044Z,1.70
2023-04-27T16:57:27.298Z,2.10
2023-04-27T16:59:56.417Z,2.28
2023-04-27T17:02:26.004Z,2.45
2023-04-27T17:04:54.081Z,2.60
2023-04-27T17:07:21.433Z,2.70
2023-04-27T17:09:48.779Z,2.90
2023-04-27T17:12:16.900Z,3.20
2023-04-27T17:14:44.478Z,3.58
2023-04-27T17:17:13.134Z,4.00
2023-04-27T17:19:40.889Z,3.87
2023-04-27T17:22:13.464Z,4.40
2023-04-27T17:24:41.023Z,4.35
2023-04-27T17:27:08.300Z,5.53
2023-04-27T17:29:35.686Z,5.13
2023-04-27T17:32:09.438Z,5.63
2023-04-27T17:37:05.984Z,5.03
2023-04-27T17:39:33.281Z,4.63
2023-04-27T17:42:00.683Z,4.63
2023-04-27T17:44:28.776Z,5.53
2023-04-27T17:46:56.421Z,4.18
2023-04-27T17:49:23.896Z,4.60
2023-04-27T17:51:52.540Z,7.32
2023-04-27T17:54:19.913Z,4.57
2023-04-27T17:56:47.432Z,4.43
2023-04-27T17:59:14.872Z,4.90
2023-04-27T18:01:42.574Z,6.63
2023-04-27T18:04:10.469Z,7.30
2023-04-27T18:06:37.819Z,8.02
2023-04-27T18:09:06.942Z,9.20
2023-04-27T18:11:34.516Z,8.65
2023-04-27T18:14:01.971Z,9.38
2023-04-27T18:16:29.515Z,9.57
2023-04-27T18:18:56.745Z,10.25
2023-04-27T18:21:26.673Z,10.73
2023-04-27T18:23:53.936Z,11.93
2023-04-27T18:26:22.896Z,13.23
2023-04-27T18:28:50.922Z,14.05
2023-04-27T18:31:19.493Z,13.65
2023-04-27T18:33:47.226Z,13.90
2023-04-27T18:36:14.874Z,14.25
2023-04-27T18:38:42.208Z,13.80
2023-04-27T18:41:09.877Z,15.30
2023-04-27T18:43:38.700Z,15.15
2023-04-27T18:46:06.290Z,14.07
2023-04-27T18:48:33.825Z,14.85
2023-04-27T18:51:01.103Z,13.20
2023-04-27T18:53:28.730Z,13.25
2023-04-27T18:55:56.152Z,14.20
2023-04-27T18:58:23.842Z,12.70
2023-04-27T19:00:52.768Z,8.15
2023-04-27T19:03:20.546Z,8.10
2023-04-27T19:05:48.071Z,8.63
2023-04-27T19:08:15.818Z,5.65
2023-04-27T19:10:43.133Z,4.80
2023-04-27T19:13:10.423Z,6.13
2023-04-27T19:15:37.752Z,7.50
2023-04-27T19:18:11.347Z,10.90
2023-04-27T19:20:39.753Z,11.10
2023-04-27T19:23:09.599Z,9.80
2023-04-27T19:25:37.468Z,9.63
2023-04-27T19:28:05.895Z,9.85
2023-04-27T19:30:33.664Z,10.20
2023-04-27T19:33:01.557Z,10.85
2023-04-27T19:35:30.694Z,11.77
2023-04-27T19:37:57.988Z,11.77
2023-04-27T19:40:25.994Z,14.38
2023-04-27T19:42:53.337Z,18.15
2023-04-27T19:45:22.333Z,20.70
2023-04-27T19:47:49.928Z,19.23
2023-04-27T19:50:17.995Z,17.95
2023-04-27T19:52:47.064Z,22.35
2023-04-27T19:55:14.267Z,21.70
2023-04-27T19:57:41.622Z,15.88
2023-04-27T20:00:11.817Z,10.97
2023-04-27T20:02:39.207Z,8.85
2023-04-27T20:05:07.490Z,7.32
2023-04-27T20:07:34.957Z,7.85
2023-04-27T20:10:04.719Z,9.32
2023-04-27T20:12:47.980Z,6.57
2023-04-27T20:15:19.450Z,5.68
2023-04-27T20:17:46.770Z,6.40
2023-04-27T20:20:14.071Z,6.88
2023-04-27T20:22:41.427Z,6.03
2023-04-27T20:25:10.722Z,6.60
2023-04-27T20:27:38.242Z,6.80
2023-04-27T20:30:06.731Z,7.03
2023-04-27T20:32:34.122Z,9.07
2023-04-27T20:35:02.607Z,11.02
2023-04-27T20:37:30.096Z,9.93
2023-04-27T20:39:58.003Z,11.38
2023-04-27T20:42:27.386Z,11.40
2023-04-27T20:44:54.983Z,9.63
2023-04-27T20:47:22.701Z,9.43
2023-04-27T20:49:50.421Z,9.93
2023-04-27T20:52:17.824Z,9.40
2023-04-27T20:54:45.329Z,7.20
2023-04-27T20:57:14.347Z,7.75
2023-04-27T20:59:43.502Z,6.07
2023-04-27T21:02:10.819Z,5.23
2023-04-27T21:04:38.308Z,4.13
2023-04-27T21:07:06.111Z,4.40
2023-04-27T21:09:33.426Z,3.90
2023-04-27T21:12:00.788Z,4.45
2023-04-27T21:14:28.063Z,4.00
2023-04-27T21:16:56.928Z,3.53
2023-04-27T21:19:24.187Z,3.60
2023-04-27T21:21:51.638Z,4.03
2023-04-27T21:24:19.928Z,3.15
2023-04-27T21:26:47.259Z,3.60
2023-04-27T21:29:14.714Z,2.80
2023-04-27T21:31:42.054Z,2.90
2023-04-27T21:34:10.819Z,2.85
2023-04-27T21:36:38.158Z,2.70
2023-04-27T21:39:06.683Z,2.77
2023-04-27T21:41:35.080Z,3.13
2023-04-27T21:44:02.580Z,2.80
2023-04-27T21:46:29.974Z,2.65
2023-04-27T21:48:57.292Z,2.70
2023-04-27T21:51:26.472Z,2.87
2023-04-27T21:53:54.051Z,2.65
2023-04-27T21:56:21.333Z,3.00
2023-04-27T21:58:48.960Z,4.75
2023-04-27T22:01:16.564Z,5.13
2023-04-27T22:03:44.045Z,5.00
2023-04-27T22:06:11.717Z,4.60
2023-04-27T22:08:40.602Z,5.00
2023-04-27T22:11:08.037Z,5.30
2023-04-27T22:13:35.523Z,5.15
2023-04-27T22:16:02.844Z,4.73
2023-04-27T22:18:30.129Z,5.30
2023-04-27T22:20:58.320Z,5.28
2023-04-27T22:23:26.598Z,5.53
2023-04-27T22:25:55.217Z,5.32
2023-04-27T22:28:23.014Z,5.10
2023-04-27T22:30:50.475Z,5.40
2023-04-27T22:33:18.472Z,4.75
2023-04-27T22:35:46.147Z,5.70
2023-04-27T22:38:13.617Z,4.97
2023-04-27T22:40:41.239Z,5.40
2023-04-27T22:43:10.080Z,5.60
2023-04-27T22:45:38.846Z,6.35
2023-04-27T22:48:07.196Z,5.55
2023-04-27T22:50:34.790Z,5.68
2023-04-27T22:53:02.268Z,4.93
2023-04-27T22:55:29.834Z,3.75
2023-04-27T22:57:57.036Z,4.18
2023-04-27T23:00:26.394Z,3.28
2023-04-27T23:02:53.709Z,3.42
2023-04-27T23:05:21.287Z,3.30
2023-04-27T23:07:50.746Z,4.00
2023-04-27T23:10:19.043Z,3.40
2023-04-27T23:12:46.422Z,3.55
2023-04-27T23:15:13.786Z,4.07
2023-04-27T23:17:42.401Z,3.60
2023-04-27T23:20:26.704Z,3.90
2023-04-27T23:22:56.267Z,4.32
2023-04-27T23:25:23.795Z,4.03
2023-04-27T23:27:52.584Z,4.22
2023-04-27T23:30:21.682Z,5.03
2023-04-27T23:32:50.710Z,4.20
2023-04-27T23:35:18.314Z,4.13
2023-04-27T23:37:45.685Z,3.90
2023-04-27T23:40:13.301Z,4.30
2023-04-27T23:42:40.515Z,3.60
2023-04-27T23:45:08.605Z,3.63
2023-04-27T23:47:35.876Z,3.78
2023-04-27T23:50:05.372Z,3.85
2023-04-27T23:52:32.686Z,3.60
2023-04-27T23:55:00.057Z,3.77
2023-04-27T23:57:27.313Z,3.58
2023-04-27T23:59:54.584Z,3.50
